EGPE

Inverness Airport

Inverness, United Kingdom
METAR EGPE 241920Z 23009KT 9999 FEW028 SCT048 10/06 Q1033
Observed Flight Rules
Sep-24 @ 19:20 UTC (16 minutes ago) Visual Flight Rules
Wind Visibility Clouds
230° at 9 knots 10,000+ meters
  • Few at 2,800' AGL
  • Scattered at 4,800' AGL
Temperatures Readings
Current 10°C / 50°F
Dewpoint 6°C / 43°F
Humidity 76%
Altimeter 30.5" Hg
Pressure 1033 hPa
Elevation 9
METAR EGPE 241920Z 23009KT 9999 FEW028 SCT048 10/06 Q1033
Observed Flight Rules
Sep-24 @ 19:20 UTC
(16 minutes ago)
VFR
Wind Visibility
230° at 9 knots 10,000+ meters
Clouds
  • Few at 2,800' AGL
  • Scattered at 4,800' AGL
Temperature Dewpoint
10°C / 50°F 6°C / 43°F
Humidity Altimeter Pressure
76% 30.5" Hg 1033 hPa